Time;durP1;ratioP1;P1;durP2;ratioP2;P2;SDS_P1;SDS_P2;PMS_P1;PMS_P2;Temp;Humidity;BMP_temperature;BMP_pressure;BME280_temperature;BME280_humidity;BME280_pressure;Samples;Min_cycle;Max_cycle;Signal;HPM_P1;HPM_P2
2022/08/17 00:00:00;;;;;;;8.93;7.20;;;23.30;99.90;;;24.52;59.31;99924.56;4992948;28;20653;-68
2022/08/17 00:02:28;;;;;;;8.60;6.97;;;23.30;99.90;;;24.55;59.30;99924.13;4994297;28;20618;-68
2022/08/17 00:04:56;;;;;;;9.83;6.67;;;23.30;99.90;;;24.53;60.38;99926.19;4977068;28;20681;-70
2022/08/17 00:07:23;;;;;;;8.20;7.00;;;23.30;99.90;;;24.56;59.51;99924.94;4992916;28;20611;-69
2022/08/17 00:09:50;;;;;;;9.00;7.50;;;23.30;99.90;;;24.56;60.08;99923.09;4992777;28;20683;-69
2022/08/17 00:12:18;;;;;;;8.60;6.90;;;23.40;99.90;;;24.52;59.65;99916.56;4994022;28;20607;-68
2022/08/17 00:15:07;;;;;;;7.93;5.93;;;23.30;99.90;;;24.47;59.58;99926.25;4992651;28;20637;-69
2022/08/17 00:17:37;;;;;;;7.40;6.70;;;23.30;99.90;;;24.36;59.79;99927.75;4989932;28;21186;-69
2022/08/17 00:20:05;;;;;;;7.07;6.30;;;23.20;99.90;;;24.37;59.44;99934.75;4993987;28;20649;-68
2022/08/17 00:22:32;;;;;;;7.47;6.27;;;23.20;99.90;;;24.34;58.96;99924.50;4993358;28;20614;-68
2022/08/17 00:25:13;;;;;;;6.63;6.03;;;23.10;99.90;;;24.38;57.74;99920.34;4993417;28;20639;-68
2022/08/17 00:27:40;;;;;;;8.30;6.73;;;23.20;99.90;;;24.35;57.70;99920.81;4993141;28;20614;-68
2022/08/17 00:30:10;;;;;;;11.07;6.47;;;23.20;99.90;;;24.25;57.61;99912.47;4991898;28;21218;-69
2022/08/17 00:32:46;;;;;;;8.10;6.40;;;23.10;99.90;;;24.28;57.71;99919.19;4985581;28;20634;-70
2022/08/17 00:35:33;;;;;;;8.37;6.30;;;23.10;99.90;;;24.27;57.16;99915.75;4990878;28;20657;-69
2022/08/17 00:38:00;;;;;;;9.60;6.50;;;23.10;99.90;;;24.18;57.53;99918.88;4991204;28;21016;-69
2022/08/17 00:40:27;;;;;;;7.73;6.10;;;23.10;99.90;;;24.17;57.33;99923.38;4992351;28;21288;-70
2022/08/17 00:43:40;;;;;;;7.80;5.87;;;23.10;99.90;;;24.13;57.75;99929.38;4992231;28;20680;-69
2022/08/17 00:46:25;;;;;;;7.17;6.47;;;23.00;99.90;;;24.10;57.12;99929.78;4991663;28;20634;-68
2022/08/17 00:48:52;;;;;;;8.10;5.97;;;23.00;99.90;;;24.01;57.01;99921.19;4986208;28;20667;-68
2022/08/17 00:51:43;;;;;;;8.03;6.47;;;22.90;99.90;;;23.98;57.44;99916.28;4987228;28;20618;-68
2022/08/17 00:54:36;;;;;;;12.17;6.40;;;22.80;99.90;;;23.90;57.42;99929.88;4974607;28;20984;-68
2022/08/17 00:57:15;;;;;;;8.50;6.57;;;22.70;99.90;;;23.76;58.07;99917.66;4971884;28;21247;-69
2022/08/17 00:59:55;;;;;;;10.10;6.17;;;22.70;99.90;;;23.78;58.24;99915.59;4983257;28;20650;-68
2022/08/17 01:02:33;;;;;;;7.50;6.20;;;22.60;99.90;;;23.68;58.38;99916.03;4974237;28;20665;-68
2022/08/17 01:05:16;;;;;;;7.00;6.13;;;22.60;99.90;;;23.74;58.13;99925.03;4975937;28;21174;-69
2022/08/17 01:07:46;;;;;;;7.63;5.83;;;22.50;99.90;;;23.76;57.90;99920.31;4976206;28;20622;-69
2022/08/17 01:10:16;;;;;;;6.63;5.63;;;22.50;99.90;;;23.59;58.02;99922.66;4994513;28;20676;-68
2022/08/17 01:13:03;;;;;;;7.00;5.97;;;22.50;99.90;;;23.60;57.86;99920.78;4958454;28;20608;-68
2022/08/17 01:15:36;;;;;;;10.47;6.20;;;22.40;99.90;;;23.57;57.64;99918.56;4986490;28;20703;-69
2022/08/17 01:18:10;;;;;;;8.37;5.70;;;22.40;99.90;;;23.55;57.69;99917.97;4976618;28;20643;-69
2022/08/17 01:20:47;;;;;;;6.40;5.23;;;22.30;99.90;;;23.48;58.00;99925.13;4982452;28;21208;-69
2022/08/17 01:23:17;;;;;;;7.30;6.40;;;22.40;99.90;;;23.29;58.56;99916.16;4959176;28;20650;-69
2022/08/17 01:25:55;;;;;;;7.70;5.30;;;22.20;99.90;;;23.30;58.09;99912.47;4987510;28;20647;-69
2022/08/17 01:28:24;;;;;;;8.63;5.97;;;22.10;99.90;;;23.20;58.10;99929.91;4972723;28;20649;-69
2022/08/17 01:31:12;;;;;;;6.50;5.50;;;22.10;99.90;;;23.23;57.91;99905.53;4976575;28;20607;-68
2022/08/17 01:33:40;;;;;;;6.60;5.70;;;22.00;99.90;;;23.23;57.92;99908.19;4991021;28;21218;-69
2022/08/17 01:36:08;;;;;;;7.47;5.90;;;22.00;99.90;;;23.20;58.08;99911.25;4990286;28;20635;-69
2022/08/17 01:38:37;;;;;;;7.13;5.87;;;22.10;99.90;;;23.21;58.02;99913.75;4957335;28;20634;-69
2022/08/17 01:41:15;;;;;;;7.93;5.70;;;22.10;99.90;;;23.22;57.81;99903.88;4989801;28;21272;-68
2022/08/17 01:44:04;;;;;;;8.73;5.53;;;22.00;99.90;;;23.27;58.08;99906.75;4973270;28;20615;-69
2022/08/17 01:46:36;;;;;;;8.63;6.03;;;22.10;99.90;;;23.27;57.87;99909.41;4971092;28;20646;-70
2022/08/17 01:49:10;;;;;;;7.23;6.27;;;22.10;99.90;;;23.23;58.07;99903.69;4969983;28;20662;-71
2022/08/17 01:51:38;;;;;;;6.27;5.63;;;22.10;99.90;;;23.27;58.02;99909.41;4991470;28;20651;-70
2022/08/17 01:54:11;;;;;;;9.50;6.97;;;22.10;99.90;;;23.28;58.43;99921.69;4991011;28;21226;-71
2022/08/17 01:56:45;;;;;;;7.43;6.40;;;22.10;99.90;;;23.35;58.33;99912.69;4981969;28;20757;-69
2022/08/17 01:59:15;;;;;;;10.03;6.00;;;22.20;99.90;;;23.40;57.57;99910.22;4989861;28;20698;-70
2022/08/17 02:01:43;;;;;;;7.53;6.30;;;22.20;99.90;;;23.49;57.84;99913.47;4989036;28;20643;-69
2022/08/17 02:04:12;;;;;;;7.10;5.97;;;22.30;99.90;;;23.41;57.70;99911.03;4992446;28;20626;-68
2022/08/17 02:06:42;;;;;;;6.77;5.80;;;22.20;99.90;;;23.38;57.71;99904.31;4989564;28;20734;-69
2022/08/17 02:09:26;;;;;;;8.70;5.70;;;22.20;99.90;;;23.36;57.78;99905.53;4989741;28;20679;-69
2022/08/17 02:11:58;;;;;;;10.20;5.93;;;22.20;99.90;;;23.33;57.71;99903.28;4979211;28;20634;-70
2022/08/17 02:14:45;;;;;;;6.83;5.80;;;22.10;99.90;;;23.25;57.97;99900.81;4977868;28;20614;-71
2022/08/17 02:17:12;;;;;;;6.73;5.87;;;22.10;99.90;;;23.31;57.70;99905.31;4991651;28;20607;-69
2022/08/17 02:19:40;;;;;;;7.23;5.83;;;22.10;99.90;;;23.34;57.56;99904.94;4974492;28;20686;-70
2022/08/17 02:22:07;;;;;;;6.93;5.17;;;22.10;99.90;;;23.17;57.53;99911.69;4991979;28;20989;-69
2022/08/17 02:24:36;;;;;;;5.97;5.00;;;22.00;99.90;;;23.17;57.74;99915.97;4973079;28;20635;-69
2022/08/17 02:27:23;;;;;;;5.20;4.33;;;22.00;99.90;;;23.17;57.41;99921.31;4990586;28;21217;-68
2022/08/17 02:29:50;;;;;;;5.50;4.73;;;21.90;99.90;;;22.95;57.86;99922.59;4989591;28;20681;-68
2022/08/17 02:32:21;;;;;;;5.73;5.10;;;21.90;99.90;;;22.95;57.98;99927.09;4990680;28;20697;-69
2022/08/17 02:35:00;;;;;;;7.80;5.60;;;21.80;99.90;;;22.91;58.07;99925.88;4989878;28;20622;-69
2022/08/17 02:37:28;;;;;;;5.17;4.67;;;21.70;99.90;;;22.82;58.24;99940.41;4990299;28;20642;-68
2022/08/17 02:39:57;;;;;;;5.33;4.70;;;21.70;99.90;;;22.73;58.77;99931.81;4982483;28;20697;-69
2022/08/17 02:42:30;;;;;;;5.63;5.10;;;21.60;99.90;;;22.77;58.68;99922.38;4992094;28;20681;-69
2022/08/17 02:44:57;;;;;;;6.47;5.47;;;21.60;99.90;;;22.76;58.69;99931.41;4991110;28;21232;-68
2022/08/17 02:47:25;;;;;;;6.23;5.17;;;21.60;99.90;;;22.81;58.61;99923.63;4992858;28;20714;-69
2022/08/17 02:49:53;;;;;;;7.60;5.77;;;21.60;99.90;;;22.84;58.36;99925.06;4975727;28;20737;-69
2022/08/17 02:52:24;;;;;;;5.83;5.23;;;21.60;99.90;;;22.91;58.13;99924.00;4997738;28;20629;-68
2022/08/17 02:55:35;;;;;;;7.07;5.30;;;21.70;99.90;;;22.91;58.27;99920.56;4983810;28;20631;-68
2022/08/17 02:58:02;;;;;;;6.90;5.63;;;21.70;99.90;;;22.93;58.19;99926.47;4997550;28;20618;-68
2022/08/17 03:00:37;;;;;;;7.67;5.60;;;21.70;99.90;;;22.95;58.13;99922.59;4981196;28;21237;-68
2022/08/17 03:03:05;;;;;;;6.70;5.33;;;21.70;99.90;;;22.97;58.09;99919.72;4997032;28;20648;-68
2022/08/17 03:05:35;;;;;;;5.90;5.30;;;21.70;99.90;;;23.00;57.71;99917.44;4997818;28;20614;-68
2022/08/17 03:08:04;;;;;;;6.70;5.67;;;21.80;99.90;;;22.97;57.97;99919.72;4980401;28;20721;-68
2022/08/17 03:10:31;;;;;;;7.10;6.30;;;21.80;99.90;;;23.00;57.95;99919.28;4997478;28;20696;-69
2022/08/17 03:12:58;;;;;;;7.03;6.30;;;21.80;99.90;;;22.93;58.25;99919.31;4996740;28;21192;-69
2022/08/17 03:15:30;;;;;;;10.80;6.20;;;21.90;99.90;;;23.04;57.80;99921.31;4995603;28;21186;-69
2022/08/17 03:17:58;;;;;;;9.00;5.90;;;21.90;99.90;;;23.09;57.67;99926.03;4981208;28;20632;-68
2022/08/17 03:20:29;;;;;;;8.93;6.87;;;21.90;99.90;;;23.10;57.66;99923.19;4979558;28;20641;-66
2022/08/17 03:22:57;;;;;;;10.07;6.47;;;21.90;99.90;;;23.20;57.36;99914.75;4990764;28;20630;-68
2022/08/17 03:25:37;;;;;;;6.67;5.97;;;22.00;99.90;;;23.14;57.75;99921.75;4996553;28;21083;-68
2022/08/17 03:28:05;;;;;;;8.37;6.40;;;22.00;99.90;;;23.13;57.74;99914.75;4978795;28;20685;-69
2022/08/17 03:30:33;;;;;;;6.47;5.87;;;22.00;99.90;;;23.25;57.47;99906.16;4960158;28;20663;-69
2022/08/17 03:33:03;;;;;;;7.70;6.90;;;22.10;99.90;;;23.21;57.76;99915.56;4978096;28;20692;-68
2022/08/17 03:35:33;;;;;;;11.10;7.00;;;22.10;99.90;;;23.15;58.00;99912.72;4995137;28;20717;-67
2022/08/17 03:38:00;;;;;;;8.57;6.67;;;22.10;99.90;;;23.22;57.63;99906.56;4996532;28;20633;-69
2022/08/17 03:40:29;;;;;;;6.90;6.27;;;22.10;99.90;;;23.25;57.47;99906.97;4995882;28;20742;-70
2022/08/17 03:43:17;;;;;;;6.50;5.90;;;22.20;99.90;;;23.08;57.96;99901.25;4987049;28;20968;-68
2022/08/17 03:57:08;;;;;;;8.10;6.50;;;22.00;99.90;;;22.98;58.90;99900.06;4996764;28;20621;-69
2022/08/17 03:59:36;;;;;;;6.83;6.17;;;21.90;99.90;;;22.93;59.51;99899.88;4979214;28;20653;-68
2022/08/17 04:02:09;;;;;;;6.60;5.90;;;21.90;99.90;;;22.99;59.30;99893.72;4993234;28;21111;-69
2022/08/17 04:04:37;;;;;;;7.20;6.43;;;21.90;99.90;;;23.06;59.28;99895.31;4992884;28;20623;-69
2022/08/17 04:07:05;;;;;;;8.30;6.20;;;21.90;99.90;;;23.00;59.14;99900.66;4991951;28;20657;-68
2022/08/17 04:09:32;;;;;;;8.10;6.13;;;21.90;99.90;;;22.98;59.64;99908.03;4989236;28;20668;-69
2022/08/17 04:11:59;;;;;;;7.53;6.20;;;21.90;99.90;;;22.98;59.64;99929.31;4993728;28;20625;-69
2022/08/17 04:14:35;;;;;;;6.30;5.10;;;21.90;99.90;;;22.98;59.48;99947.94;4993813;28;20614;-68
2022/08/17 04:17:27;;;;;;;9.77;4.10;;;21.90;99.90;;;22.76;60.35;99973.97;4992948;28;20693;-69
2022/08/17 04:19:55;;;;;;;6.23;4.50;;;21.80;99.90;;;22.63;60.47;100013.84;4976127;28;20663;-70
2022/08/17 04:22:23;;;;;;;9.23;7.23;;;21.70;99.90;;;22.30;61.55;100015.56;4992115;28;20649;-68
2022/08/17 04:25:05;;;;;;;7.50;6.70;;;21.40;99.90;;;22.33;60.97;99993.91;4993684;28;20630;-69
2022/08/17 04:27:32;;;;;;;7.53;6.73;;;21.40;99.90;;;22.46;61.01;99993.94;4992033;28;20669;-68
2022/08/17 04:29:59;;;;;;;8.10;6.10;;;21.40;99.90;;;22.53;60.73;99993.94;5004406;23;20682;-66
2022/08/17 04:32:26;;;;;;;5.83;5.17;;;21.40;99.90;;;22.59;60.41;100009.13;4993677;28;21273;-63
2022/08/17 04:35:19;;;;;;;7.93;5.47;;;21.40;99.90;;;22.55;60.33;100010.53;4992519;28;20610;-66
2022/08/17 04:37:46;;;;;;;7.80;6.30;;;21.40;99.90;;;22.51;60.53;99999.44;4984989;28;20618;-65
2022/08/17 04:43:04;;;;;;;8.97;5.43;;;21.40;99.90;;;22.71;59.79;99999.50;4992353;28;20989;-66
2022/08/17 04:45:31;;;;;;;9.20;6.87;;;21.50;99.90;;;22.67;59.80;99977.84;4991553;28;20717;-66
2022/08/17 04:48:00;;;;;;;10.97;6.30;;;21.50;99.90;;;22.82;59.41;99986.44;4993188;28;20669;-66
2022/08/17 04:50:27;;;;;;;7.90;5.47;;;21.60;99.90;;;22.77;59.48;99999.53;4980577;28;20675;-64
2022/08/17 04:52:54;;;;;;;7.07;5.80;;;21.60;99.90;;;22.75;59.74;99998.91;4979618;28;20656;-63
2022/08/17 04:55:21;;;;;;;9.87;7.10;;;21.60;99.90;;;22.72;59.75;99977.22;4991318;28;21182;-63
2022/08/17 04:57:48;;;;;;;6.83;5.90;;;21.60;99.90;;;22.85;59.49;99995.84;4992944;28;21201;-64
2022/08/17 05:00:15;;;;;;;5.80;4.87;;;21.60;99.90;;;22.80;59.46;100004.44;4990290;28;20662;-63
2022/08/17 05:02:49;;;;;;;5.63;4.97;;;21.60;99.90;;;22.83;59.47;99997.91;4992546;28;20680;-63
2022/08/17 05:05:39;;;;;;;7.33;5.87;;;21.60;99.90;;;22.78;59.65;100006.50;4990506;28;20641;-65
2022/08/17 05:08:06;;;;;;;8.20;5.57;;;21.60;99.90;;;22.88;59.59;100000.75;4983806;28;20653;-63
2022/08/17 05:10:36;;;;;;;7.63;5.10;;;21.70;99.90;;;22.92;59.46;99994.00;4990649;28;20697;-65
2022/08/17 05:13:24;;;;;;;8.77;6.13;;;21.70;99.90;;;23.05;58.80;100008.13;4975388;28;21228;-63
2022/08/17 05:15:58;;;;;;;7.00;6.30;;;21.80;99.90;;;23.27;58.25;99978.63;4994812;28;21280;-63
2022/08/17 05:18:28;;;;;;;9.20;6.90;;;22.00;99.90;;;23.29;58.01;99980.06;4990797;28;20633;-64
2022/08/17 05:20:56;;;;;;;8.20;5.60;;;22.10;99.90;;;23.37;57.93;99998.47;4978794;28;20669;-64
2022/08/17 05:23:25;;;;;;;7.60;6.47;;;22.20;99.90;;;23.42;57.59;99988.03;4991886;28;20991;-66
2022/08/17 05:26:02;;;;;;;8.03;5.23;;;22.20;99.90;;;23.40;57.84;99991.94;4974714;28;21082;-64
2022/08/17 05:28:33;;;;;;;6.60;5.23;;;22.20;99.90;;;23.43;57.97;100007.47;4992438;28;20653;-64
2022/08/17 05:31:02;;;;;;;10.53;5.30;;;22.20;99.90;;;23.41;58.01;99994.38;4989570;28;20819;-65
2022/08/17 05:33:35;;;;;;;5.17;4.67;;;22.20;99.90;;;23.54;57.55;99997.00;4989868;28;21260;-63
2022/08/17 05:36:08;;;;;;;16.43;6.43;;;22.30;99.90;;;23.72;57.32;100009.66;4990751;28;20737;-63
2022/08/17 05:38:54;;;;;;;10.00;5.30;;;22.40;99.90;;;23.82;57.54;100005.53;4977336;28;20626;-63
2022/08/17 05:41:21;;;;;;;7.70;5.67;;;22.50;99.90;;;23.88;57.28;100011.84;4990319;28;20630;-66
2022/08/17 05:43:48;;;;;;;10.37;6.13;;;22.60;99.90;;;24.03;55.84;100023.06;4991117;28;20643;-63
2022/08/17 05:46:26;;;;;;;12.97;7.63;;;22.70;99.90;;;24.39;55.71;100022.50;4990395;28;20673;-64
2022/08/17 05:49:06;;;;;;;7.20;6.07;;;22.90;99.90;;;24.82;54.41;100012.81;4974818;28;20615;-64
2022/08/17 05:51:54;;;;;;;8.93;6.70;;;23.30;99.90;;;25.24;53.52;100008.53;4973657;28;20730;-64
2022/08/17 05:54:47;;;;;;;7.87;6.33;;;23.60;99.90;;;25.81;51.94;99999.34;4973991;28;20606;-64
2022/08/17 05:57:37;;;;;;;15.83;7.97;;;24.00;99.60;;;26.26;50.79;100002.50;4973514;28;20730;-66
2022/08/17 06:00:36;;;;;;;9.67;7.63;;;24.50;98.50;;;26.83;49.28;99991.94;4977189;28;20638;-66
2022/08/17 06:03:28;;;;;;;13.37;7.57;;;24.90;97.70;;;26.26;50.48;99981.09;4973919;28;20635;-64
2022/08/17 06:06:32;;;;;;;14.80;8.10;;;24.80;97.70;;;25.89;51.93;99988.34;4973799;28;20633;-64
2022/08/17 06:09:24;;;;;;;11.87;8.20;;;24.60;98.10;;;25.59;53.34;99988.28;4972902;28;20635;-64
2022/08/17 06:12:36;;;;;;;13.27;7.30;;;24.40;98.60;;;25.21;54.69;99985.75;4974910;28;20773;-66
2022/08/17 06:15:25;;;;;;;8.10;6.40;;;24.10;99.10;;;25.28;54.83;99991.88;4973813;28;20617;-65
2022/08/17 06:17:58;;;;;;;15.83;7.20;;;23.90;99.50;;;25.09;54.93;99990.19;4990381;28;20640;-64
2022/08/17 06:20:34;;;;;;;15.87;7.90;;;23.80;99.80;;;25.01;55.37;99997.66;4990567;28;20728;-65
2022/08/17 06:23:13;;;;;;;7.40;6.50;;;23.80;99.90;;;24.90;55.34;99988.53;4990315;28;20693;-64
2022/08/17 06:25:47;;;;;;;9.13;6.37;;;23.70;99.90;;;25.03;55.44;99998.25;4984615;28;20638;-64
2022/08/17 06:28:35;;;;;;;9.17;6.20;;;23.70;99.90;;;25.00;54.86;99996.84;4966142;28;20614;-65
2022/08/17 06:31:14;;;;;;;11.03;5.53;;;23.70;99.90;;;24.94;54.75;99986.22;4990315;28;21019;-64
2022/08/17 06:33:45;;;;;;;8.97;5.50;;;23.60;99.50;;;24.89;54.21;99983.41;4973746;28;20840;-64
2022/08/17 06:37:01;;;;;;;8.20;6.30;;;23.60;99.50;;;24.86;55.25;99986.50;4990346;28;20731;-65
2022/08/17 06:40:20;;;;;;;15.43;5.60;;;23.60;99.70;;;24.82;54.90;99987.97;4971221;28;20651;-64
2022/08/17 06:43:12;;;;;;;11.00;7.30;;;23.50;99.70;;;24.80;55.47;100019.41;4987784;28;20632;-64
2022/08/17 06:46:10;;;;;;;10.97;6.57;;;23.50;99.90;;;24.64;56.45;100021.53;5006567;28;20646;-66
2022/08/17 06:48:56;;;;;;;18.67;6.60;;;23.50;99.90;;;24.72;56.16;100027.63;4971843;28;20638;-66
2022/08/17 06:51:38;;;;;;;7.60;5.97;;;23.50;99.90;;;24.44;57.57;100031.50;4988751;28;20757;-66
2022/08/17 06:54:19;;;;;;;8.83;7.93;;;23.40;99.90;;;24.35;57.61;100034.63;4990185;28;20733;-64
2022/08/17 06:57:01;;;;;;;11.90;7.40;;;23.20;99.90;;;24.41;57.99;100036.44;4987268;28;20705;-65
2022/08/17 06:59:45;;;;;;;12.10;7.07;;;23.20;99.90;;;24.38;57.37;100016.34;4972703;28;20999;-64
2022/08/17 07:02:36;;;;;;;10.53;5.80;;;23.10;99.90;;;24.34;57.91;100015.13;4971088;28;20674;-64
2022/08/17 07:05:33;;;;;;;8.70;6.83;;;23.10;99.90;;;24.39;57.85;100020.66;4988887;28;20742;-64
2022/08/17 07:08:37;;;;;;;7.67;6.87;;;23.10;99.90;;;24.28;59.11;100032.00;4990240;28;20626;-66
2022/08/17 07:11:47;;;;;;;10.00;7.50;;;23.10;99.90;;;24.13;60.16;100034.13;4989395;28;21257;-66
2022/08/17 07:14:43;;;;;;;8.57;5.63;;;22.90;99.90;;;23.34;63.04;100059.31;4989411;28;20643;-64
2022/08/17 07:17:14;;;;;;;7.33;5.77;;;22.50;99.90;;;23.13;63.84;100047.81;4956374;28;20726;-65
2022/08/17 07:19:44;;;;;;;7.57;6.20;;;22.20;99.90;;;23.41;64.61;100052.94;4989395;28;20649;-66
2022/08/17 07:22:54;;;;;;;11.57;6.40;;;22.30;99.90;;;23.33;63.48;100034.53;4977218;28;20626;-65
2022/08/17 07:25:27;;;;;;;8.60;6.23;;;22.30;99.90;;;23.36;63.22;100033.31;4962485;28;20630;-65
2022/08/17 07:27:59;;;;;;;8.17;5.13;;;22.20;99.90;;;23.17;63.51;100032.25;4991158;28;21003;-64
2022/08/17 07:30:44;;;;;;;9.87;5.90;;;22.10;99.90;;;23.34;63.01;100030.84;4989200;28;20674;-64
2022/08/17 07:33:19;;;;;;;10.33;5.30;;;22.20;99.90;;;23.51;61.63;100025.91;4973180;28;20721;-65
2022/08/17 07:35:48;;;;;;;17.23;5.53;;;22.30;99.90;;;23.54;61.63;100020.16;4990832;28;22068;-66
2022/08/17 07:38:19;;;;;;;6.40;5.40;;;22.30;99.90;;;23.63;61.63;100042.88;4996602;28;20641;-64
2022/08/17 07:41:00;;;;;;;6.90;5.27;;;22.40;99.90;;;23.67;60.61;100063.56;4982789;28;20934;-64
2022/08/17 07:43:38;;;;;;;9.83;5.97;;;22.40;99.90;;;23.65;61.29;100057.63;4993735;28;20708;-66
2022/08/17 07:49:09;;;;;;;6.77;4.87;;;22.60;99.90;;;23.43;62.33;100058.06;4988737;28;20645;-64
2022/08/17 07:51:42;;;;;;;8.43;5.70;;;22.40;99.90;;;23.37;62.44;100064.22;4990742;28;20709;-65
2022/08/17 07:54:14;;;;;;;7.37;5.50;;;22.40;99.90;;;23.24;63.41;100066.84;4993165;28;20955;-64
2022/08/17 07:57:10;;;;;;;5.73;5.20;;;22.20;99.90;;;23.56;62.85;100063.38;4993426;28;20689;-65
2022/08/17 08:00:08;;;;;;;6.20;5.30;;;22.30;99.90;;;23.57;62.67;100035.72;4993757;28;21217;-64
2022/08/17 08:02:46;;;;;;;5.10;4.43;;;22.40;99.90;;;23.68;62.80;100022.56;4974744;28;20717;-65
2022/08/17 08:05:26;;;;;;;7.60;5.27;;;22.50;99.90;;;23.73;60.79;100025.44;4975882;28;21190;-64
2022/08/17 08:08:41;;;;;;;5.90;5.13;;;22.60;99.90;;;23.81;60.45;100035.03;4993549;28;20687;-64
2022/08/17 08:11:14;;;;;;;6.67;5.20;;;22.60;99.90;;;23.74;61.52;100031.59;4956612;28;20699;-64
2022/08/17 08:13:44;;;;;;;7.23;5.40;;;22.50;99.90;;;23.76;61.13;100037.53;4973103;28;21050;-66
2022/08/17 08:16:20;;;;;;;7.40;5.70;;;22.60;99.90;;;23.73;61.26;100046.75;4993140;28;20654;-64
2022/08/17 08:18:53;;;;;;;6.63;5.93;;;22.60;99.90;;;23.66;62.09;100055.78;4992521;28;20638;-64
2022/08/17 08:21:50;;;;;;;7.20;5.43;;;22.50;99.90;;;23.59;62.98;100050.47;4987557;28;20662;-64
2022/08/17 08:24:51;;;;;;;6.17;5.40;;;22.50;99.90;;;23.71;62.11;100046.13;4988245;28;20657;-64
2022/08/17 08:27:32;;;;;;;7.70;6.70;;;22.50;99.90;;;23.78;62.04;100076.25;4991183;28;20647;-66
2022/08/17 08:30:14;;;;;;;9.57;6.73;;;22.60;99.90;;;23.92;62.16;100069.84;4992323;28;20987;-64
2022/08/17 08:33:28;;;;;;;9.50;6.37;;;22.60;99.90;;;24.04;61.80;100047.88;4975567;28;20739;-64
2022/08/17 08:36:43;;;;;;;7.30;5.80;;;22.70;99.90;;;23.95;62.04;100063.28;4975637;28;21174;-64
2022/08/17 08:39:55;;;;;;;7.20;5.70;;;22.70;99.90;;;23.92;61.64;100061.84;4992433;28;21260;-64
2022/08/17 08:42:51;;;;;;;10.20;5.80;;;22.70;99.90;;;23.96;60.63;100056.91;4992882;28;20627;-64
2022/08/17 08:46:00;;;;;;;7.77;6.13;;;22.80;99.90;;;24.04;59.86;100061.19;4974604;28;20641;-64
2022/08/17 08:49:08;;;;;;;8.23;6.70;;;22.80;99.90;;;24.06;60.19;100069.84;4960122;28;20618;-65
2022/08/17 08:51:59;;;;;;;8.60;6.23;;;22.80;99.90;;;24.33;60.29;100072.19;4992178;28;20717;-64
2022/08/17 08:54:37;;;;;;;7.47;6.53;;;23.00;99.90;;;24.56;59.15;100077.78;4992512;28;20631;-64
2022/08/17 08:57:21;;;;;;;8.10;6.70;;;23.20;99.90;;;24.79;59.02;100087.16;4956059;28;20757;-65
2022/08/17 09:00:13;;;;;;;8.27;6.70;;;23.30;99.90;;;25.07;57.59;100093.69;4958473;28;20643;-63
2022/08/17 09:03:01;;;;;;;5.80;5.30;;;23.60;99.90;;;25.24;57.94;100105.47;4991832;28;20730;-65
2022/08/17 09:06:21;;;;;;;7.40;5.83;;;23.80;99.90;;;25.43;57.57;100103.69;4991613;28;20718;-64
2022/08/17 09:09:28;;;;;;;7.57;5.70;;;24.00;99.90;;;25.47;57.42;100083.53;4992176;28;20705;-64
2022/08/17 09:12:24;;;;;;;7.30;5.47;;;24.10;99.90;;;25.40;56.41;100080.09;4991179;28;21272;-65
2022/08/17 09:15:10;;;;;;;7.97;6.30;;;24.00;99.90;;;25.55;55.42;100088.63;4974784;28;21166;-65
2022/08/17 09:18:08;;;;;;;14.30;6.67;;;24.10;99.90;;;25.59;55.15;100087.13;4975779;28;20598;-65
2022/08/17 09:21:00;;;;;;;8.23;7.17;;;24.20;99.90;;;25.88;54.46;100078.38;4975693;28;20651;-66
2022/08/17 09:23:38;;;;;;;8.57;6.10;;;24.40;99.90;;;26.18;54.02;100081.16;4979430;28;21195;-66
2022/08/17 09:26:24;;;;;;;21.33;14.73;;;24.60;99.90;;;26.30;54.12;100094.59;4966988;28;20631;-64
2022/08/17 09:29:00;;;;;;;20.73;11.23;;;24.80;99.90;;;26.14;54.17;100120.91;4979583;28;20619;-65
2022/08/17 09:32:02;;;;;;;10.00;6.40;;;24.80;99.90;;;26.42;53.83;100139.09;4951301;28;20646;-66
2022/08/17 09:34:48;;;;;;;8.20;6.63;;;24.90;99.90;;;26.58;52.96;100127.75;4973149;28;20694;-64
2022/08/17 09:37:28;;;;;;;6.50;5.90;;;25.00;99.70;;;26.69;53.01;100123.50;4987585;28;21057;-65
2022/08/17 09:40:11;;;;;;;8.67;6.53;;;25.20;99.60;;;26.81;53.03;100116.38;4991386;28;20626;-66
2022/08/17 09:43:08;;;;;;;8.80;6.50;;;25.20;99.60;;;26.98;52.84;100116.53;4972798;28;21257;-64
2022/08/17 09:45:56;;;;;;;8.37;6.17;;;25.40;99.50;;;27.13;52.29;100108.88;4990932;28;20722;-67
2022/08/17 09:48:49;;;;;;;11.20;7.43;;;25.50;99.30;;;27.11;52.41;100095.72;4966344;28;20682;-65
2022/08/17 09:51:36;;;;;;;9.73;6.90;;;25.50;99.20;;;26.88;53.07;100114.41;4982638;28;20693;-68
2022/08/17 09:54:15;;;;;;;8.03;6.37;;;25.50;99.20;;;26.71;53.59;100132.94;4984048;28;20623;-64
2022/08/17 09:57:21;;;;;;;8.67;7.77;;;25.40;99.30;;;26.83;53.44;100131.13;4964115;28;20681;-66
2022/08/17 10:00:10;;;;;;;9.57;7.87;;;25.40;99.30;;;26.78;53.67;100125.66;5002188;28;20642;-64
2022/08/17 10:03:33;;;;;;;8.40;7.43;;;25.40;99.40;;;26.61;54.45;100145.22;4971014;28;20676;-67
2022/08/17 10:06:18;;;;;;;8.90;7.57;;;25.30;99.70;;;25.94;55.97;100159.53;4968961;28;20650;-64
2022/08/17 10:09:41;;;;;;;8.73;7.60;;;24.90;99.80;;;25.86;56.36;100152.63;4985200;28;20657;-66
2022/08/17 10:12:28;;;;;;;8.40;6.47;;;24.70;99.90;;;25.68;58.48;100141.94;4957301;28;20666;-65
2022/08/17 10:15:14;;;;;;;20.13;7.70;;;24.60;99.90;;;25.51;59.90;100132.84;4981541;28;20639;-64
2022/08/17 10:18:07;;;;;;;11.77;8.67;;;24.30;99.90;;;25.35;61.21;100128.00;4982284;28;20645;-66
2022/08/17 10:26:53;;;;;;;9.93;7.20;;;23.80;99.90;;;25.08;63.85;100154.06;4965707;28;21078;-66
2022/08/17 10:29:50;;;;;;;12.43;6.93;;;23.80;99.90;;;24.99;63.29;100158.03;4968346;28;20674;-65
2022/08/17 10:32:40;;;;;;;8.90;6.83;;;23.80;99.90;;;24.85;63.95;100161.81;4987295;28;21229;-66
2022/08/17 10:35:37;;;;;;;9.30;6.67;;;23.70;99.90;;;25.01;63.34;100160.47;4970764;28;20619;-65
2022/08/17 10:38:36;;;;;;;12.73;7.20;;;23.70;99.90;;;25.04;63.14;100165.41;4990310;28;20638;-67
2022/08/17 10:41:28;;;;;;;8.87;7.27;;;23.80;99.90;;;25.04;62.75;100163.56;4967390;28;21020;-66
2022/08/17 10:44:02;;;;;;;8.90;6.80;;;23.80;99.90;;;25.20;62.24;100160.34;4971855;28;20638;-66
2022/08/17 10:47:13;;;;;;;11.20;7.30;;;23.90;99.90;;;25.33;61.65;100157.59;4986000;28;20627;-65
2022/08/17 10:49:52;;;;;;;8.90;7.30;;;24.00;99.90;;;25.46;60.36;100151.34;4967735;28;20661;-65
2022/08/17 10:52:19;;;;;;;9.17;7.20;;;24.10;99.90;;;25.63;59.94;100144.44;4988543;28;21255;-66
2022/08/17 10:54:50;;;;;;;10.97;6.30;;;24.20;99.90;;;25.71;59.53;100141.47;4983069;28;20634;-64
2022/08/17 10:57:32;;;;;;;10.50;6.87;;;24.30;99.90;;;25.78;58.58;100142.22;4990468;28;20611;-64
2022/08/17 11:00:33;;;;;;;9.03;6.57;;;24.40;99.90;;;25.90;58.12;100137.78;4990868;28;20712;-65
2022/08/17 11:03:01;;;;;;;11.40;7.37;;;24.50;99.90;;;25.83;57.77;100149.59;4952580;28;20661;-66
2022/08/17 11:05:58;;;;;;;8.67;6.27;;;24.60;99.90;;;26.21;55.26;100152.91;4973601;28;20684;-67
2022/08/17 11:08:51;;;;;;;15.90;6.87;;;24.80;99.90;;;26.47;55.17;100149.13;4992079;28;20646;-65
2022/08/17 11:11:39;;;;;;;16.90;7.80;;;24.90;99.90;;;26.72;54.58;100152.50;4992182;28;21182;-65
2022/08/17 11:14:56;;;;;;;11.23;8.83;;;25.20;99.90;;;26.75;54.10;100158.22;4992467;28;20629;-64
2022/08/17 11:17:26;;;;;;;14.10;9.83;;;25.30;99.90;;;27.35;52.45;100166.25;4977765;28;20615;-66
2022/08/17 11:20:18;;;;;;;7.90;6.60;;;25.70;99.80;;;27.71;51.38;100162.56;4994924;28;20650;-66
2022/08/17 11:23:13;;;;;;;6.40;5.33;;;26.00;98.90;;;27.95;50.01;100167.69;4995724;28;20619;-69
2022/08/17 11:25:49;;;;;;;7.40;5.40;;;26.30;97.90;;;28.01;49.32;100171.31;4995265;28;20627;-66
2022/08/17 11:28:22;;;;;;;7.40;5.30;;;26.50;97.60;;;28.23;49.72;100165.13;4978037;28;20742;-68
2022/08/17 11:30:57;;;;;;;5.13;4.27;;;26.60;97.50;;;28.36;49.31;100164.06;4995053;28;20654;-66
2022/08/17 11:33:28;;;;;;;11.37;5.60;;;26.80;97.10;;;27.65;49.96;100169.66;4978074;28;20694;-65